Latest Coastal Weather Observations for Cowley Beach (Defence)

IDQ60701

Issued at 5:52 pm EST Tuesday 26 May 2020 (issued every 10 minutes, with the page automatically refreshed every 10 minutes)

About coastal observations | Map of coastal stations | Coastal observations for QLD | Marine services | Other Formats
Station Details ID: 032194 Name: COWLEY BEACH (DEFENCE) Lat: -17.69 Lon: 146.11 Height: 4.25 m
Data from the previous 72 hours. | See also: Recent months for locations in Queensland
Date/Time
EST
Wind Sea
Height
m
Swell Vis
km
Cloud Weather Temp
°C
Press
hPa
Rain since
9am
mm
Dir  Spd
kts
Gust
kts
Height
m
Period
s
Dir
26/05:30pm SSE 1 4 - - - - - - - 20.6 - 0.2
26/05:00pm ESE 2 7 - - - - - - - 21.8 - 0.2
26/04:30pm SSE 3 5 - - - - - - - 22.3 - 0.2
26/04:00pm SE 3 6 - - - - - - - 22.4 - 0.2
26/03:30pm SE 3 5 - - - - - - - 22.9 - 0.2
26/03:00pm SSE 4 7 - - - - - - - 22.8 - 0.2
26/02:30pm S 5 8 - - - - - - - 22.4 - 0.2
26/02:00pm SSE 5 10 - - - - - - - 22.3 - 0.2
26/01:30pm S 4 8 - - - - - - - 22.4 - 0.2
26/01:00pm SSE 4 8 - - - - - - - 22.5 - 0.2
26/12:30pm S 5 9 - - - - - - - 22.3 - 0.2
26/12:00pm S 5 9 - - - - - - - 22.1 - 0.0
26/11:30am S 4 7 - - - - - - - 22.2 - 0.0
26/11:00am S 4 6 - - - - - - - 22.1 - 0.0
26/10:30am S 4 7 - - - - - - - 21.8 - 0.0
26/10:00am SW 3 6 - - - - - - - 20.9 - 0.0
26/09:30am WSW 3 5 - - - - - - - 19.4 - 0.0
26/09:00am WNW 1 3 - - - - - - - 17.9 - 0.2
26/08:30am WNW 2 3 - - - - - - - 15.4 - 0.2
26/08:00am WNW 1 2 - - - - - - - 13.3 - 0.2
26/07:30am WNW 2 4 - - - - - - - 11.5 - 0.2
26/07:00am NW 2 4 - - - - - - - 10.9 - 0.2
26/06:30am NW 3 5 - - - - - - - 10.8 - 0.2
26/06:00am WNW 1 3 - - - - - - - 10.8 - 0.2
26/05:30am WNW 3 5 - - - - - - - 10.9 - 0.2
26/05:00am WNW 3 5 - - - - - - - 11.0 - 0.2
26/04:30am NW 4 6 - - - - - - - 11.2 - 0.2
26/04:00am NW 4 6 - - - - - - - 11.2 - 0.2
26/03:30am NW 2 4 - - - - - - - 11.2 - 0.2
26/03:00am WNW 2 4 - - - - - - - 11.3 - 0.2
26/02:30am NW 2 4 - - - - - - - 11.4 - 0.2
26/02:00am NW 2 4 - - - - - - - 11.5 - 0.2
26/01:30am NW 3 5 - - - - - - - 11.7 - 0.2
26/01:00am NW 2 3 - - - - - - - 11.8 - 0.2
26/12:30am WNW 1 3 - - - - - - - 11.6 - 0.2
26/12:00am WNW 1 3 - - - - - - - 12.0 - 0.2
 
Date/Time
EST
Wind Sea
Height
m
Swell Vis
km
Cloud Weather Temp
°C
Press
hPa
Rain since
9am
mm
Dir  Spd
kts
Gust
kts
Height
m
Period
s
Dir
25/11:30pm NW 2 4 - - - - - - - 12.3 - 0.2
25/11:00pm WNW 1 3 - - - - - - - 12.1 - 0.2
25/10:30pm NW 2 3 - - - - - - - 12.2 - 0.2
25/10:00pm NW 3 4 - - - - - - - 12.6 - 0.2
25/09:30pm WNW 1 2 - - - - - - - 12.6 - 0.2
25/09:00pm SW 4 5 - - - - - - - 13.2 - 0.2
25/08:30pm SW 4 4 - - - - - - - 13.0 - 0.2
25/08:00pm WSW 4 4 - - - - - - - 13.0 - 0.2
25/07:30pm WSW 3 4 - - - - - - - 13.1 - 0.2
25/07:00pm CALM 0 0 - - - - - - - 13.5 - 0.2
25/06:30pm CALM 0 0 - - - - - - - 14.3 - 0.2
25/06:00pm CALM 0 0 - - - - - - - 15.7 - 0.2
25/05:30pm CALM 0 4 - - - - - - - 17.9 - 0.2
25/05:00pm ESE 1 2 - - - - - - - 20.8 - 0.2
25/04:30pm SSE 1 4 - - - - - - - 21.4 - 0.2
25/04:00pm SE 2 4 - - - - - - - 21.5 - 0.2
25/03:30pm SE 3 5 - - - - - - - 21.3 - 0.2
25/03:00pm SE 3 8 - - - - - - - 21.4 - 0.2
25/02:30pm ESE 3 8 - - - - - - - 21.6 - 0.2
25/02:00pm SE 4 6 - - - - - - - 21.7 - 0.2
25/01:30pm SE 4 6 - - - - - - - 21.7 - 0.2
25/01:00pm ESE 4 6 - - - - - - - 21.6 - 0.2
25/12:30pm ESE 3 5 - - - - - - - 21.2 - 0.2
25/12:00pm ESE 3 5 - - - - - - - 21.2 - 0.0
25/11:30am SE 2 5 - - - - - - - 21.1 - 0.0
25/11:00am SE 2 5 - - - - - - - 20.4 - 0.0
25/10:30am SSE 3 5 - - - - - - - 20.2 - 0.0
25/10:00am SW 3 5 - - - - - - - 19.1 - 0.0
25/09:30am WSW 2 4 - - - - - - - 17.8 - 0.0
25/09:00am W 1 3 - - - - - - - 16.7 - 0.0
25/08:30am CALM 0 2 - - - - - - - 14.6 - 0.0
25/08:00am NW 1 3 - - - - - - - 12.3 - 0.0
25/07:30am NW 2 3 - - - - - - - 10.6 - 0.0
25/07:00am CALM 0 2 - - - - - - - 9.6 - 0.0
25/06:30am CALM 0 0 - - - - - - - 9.5 - 0.0
25/06:00am NW 2 5 - - - - - - - 10.2 - 0.0
25/05:30am NW 3 5 - - - - - - - 10.4 - 0.0
25/05:00am WSW 4 6 - - - - - - - 10.9 - 0.0
25/04:30am WSW 5 7 - - - - - - - 10.7 - 0.0
25/04:00am WSW 4 6 - - - - - - - 10.2 - 0.0
25/03:30am WSW 4 6 - - - - - - - 10.0 - 0.0
25/03:00am W 3 5 - - - - - - - 9.8 - 0.0
25/02:30am W 3 4 - - - - - - - 9.9 - 0.0
25/02:00am NW 1 3 - - - - - - - 10.3 - 0.0
25/01:30am NW 2 3 - - - - - - - 11.0 - 0.0
25/01:00am WNW 2 4 - - - - - - - 11.3 - 0.0
25/12:30am NW 3 5 - - - - - - - 11.5 - 0.0
25/12:00am NW 2 3 - - - - - - - 10.6 - 0.0
 
Date/Time
EST
Wind Sea
Height
m
Swell Vis
km
Cloud Weather Temp
°C
Press
hPa
Rain since
9am
mm
Dir  Spd
kts
Gust
kts
Height
m
Period
s
Dir
24/11:30pm NW 2 3 - - - - - - - 10.7 - 0.0
24/11:00pm WNW 1 2 - - - - - - - 10.7 - 0.0
24/10:30pm W 1 2 - - - - - - - 11.1 - 0.0
24/10:00pm NW 1 3 - - - - - - - 11.4 - 0.0
24/09:30pm WSW 1 3 - - - - - - - 11.6 - 0.0
24/09:00pm SW 2 3 - - - - - - - 11.8 - 0.0
24/08:30pm WSW 3 3 - - - - - - - 12.2 - 0.0
24/08:00pm WSW 3 4 - - - - - - - 12.4 - 0.0
24/07:30pm WSW 2 3 - - - - - - - 12.5 - 0.0
24/07:00pm W 2 3 - - - - - - - 13.2 - 0.0
24/06:30pm W 2 3 - - - - - - - 14.0 - 0.0
24/06:00pm CALM 0 2 - - - - - - - 15.8 - 0.0
24/05:30pm S 2 5 - - - - - - - 18.7 - 0.0
24/05:00pm SSE 3 6 - - - - - - - 20.0 - 0.0
24/04:30pm SSE 3 6 - - - - - - - 19.4 - 0.0
24/04:00pm SSE 1 4 - - - - - - - 19.8 - 0.0
24/03:30pm SSE 2 6 - - - - - - - 20.4 - 0.0
24/03:00pm SE 2 5 - - - - - - - 20.9 - 0.0
24/02:30pm SSE 3 7 - - - - - - - 20.6 - 0.0
24/02:00pm SSE 3 8 - - - - - - - 20.7 - 0.0
24/01:30pm SSE 4 9 - - - - - - - 19.9 - 0.0
24/01:00pm S 4 8 - - - - - - - 20.7 - 0.0
24/12:30pm SSE 5 8 - - - - - - - 20.2 - 0.0
24/12:00pm S 4 8 - - - - - - - 19.5 - 0.0
24/11:30am SSE 4 7 - - - - - - - 19.5 - 0.0
24/11:00am SSW 6 10 - - - - - - - 19.1 - 0.0
24/10:30am SSW 5 9 - - - - - - - 18.2 - 0.0
24/10:00am SSW 5 9 - - - - - - - 16.8 - 0.0
24/09:30am SSW 3 6 - - - - - - - 15.6 - 0.0
24/09:00am SSW 2 5 - - - - - - - 14.2 - 17.2
24/08:30am SW 2 4 - - - - - - - 13.3 - 17.2
24/08:00am WSW 4 7 - - - - - - - 13.3 - 17.2
24/07:30am WSW 3 5 - - - - - - - 12.6 - 17.2
24/07:00am SW 4 6 - - - - - - - 12.1 - 17.2
24/06:30am SW 4 5 - - - - - - - 11.6 - 17.2
24/06:00am SW 1 3 - - - - - - - 11.8 - 17.2
24/05:30am SW 3 6 - - - - - - - 12.6 - 17.2
24/05:00am W 1 2 - - - - - - - 12.6 - 17.2
24/04:30am SW 2 4 - - - - - - - 13.2 - 17.2
24/04:00am SSW 5 10 - - - - - - - 14.4 - 17.2
24/03:30am SSW 2 5 - - - - - - - 13.1 - 17.2
24/03:00am SSW 3 7 - - - - - - Recent precip. 13.4 - 17.2
24/02:30am SSW 5 8 - - - - - - - 13.6 - 17.2
24/02:00am SSW 4 7 - - - - - - - 14.0 - 17.0
24/01:30am SSW 7 11 - - - - - - - 14.8 - 17.0
24/01:00am SSW 4 9 - - - - - - - 15.1 - 17.0
24/12:30am SSW 3 7 - - - - - - - 15.0 - 17.0
24/12:00am SSW 4 7 - - - - - - - 15.3 - 17.0
 
Date/Time
EST
Wind Sea
Height
m
Swell Vis
km
Cloud Weather Temp
°C
Press
hPa
Rain since
9am
mm
Dir  Spd
kts
Gust
kts
Height
m
Period
s
Dir
23/11:30pm SSW 4 9 - - - - - - - 15.2 - 17.0
23/11:00pm SSW 4 6 - - - - - - - 15.0 - 17.0
23/10:30pm S 3 7 - - - - - - - 15.0 - 17.0
23/10:00pm SSW 4 5 - - - - - - - 15.1 - 17.0
23/09:30pm S 4 10 - - - - - - - 15.1 - 16.8
23/09:00pm SSW 4 6 - - - - - - Rain 15.2 - 16.0
23/08:30pm SW 5 10 - - - - - - - 15.1 - 15.2
23/08:00pm SSW 4 8 - - - - - - - 15.2 - 15.0
23/07:30pm SW 4 8 - - - - - - - 15.2 - 14.8
23/07:00pm SSW 4 8 - - - - - - - 15.2 - 14.4
23/06:30pm SSW 4 7 - - - - - - - 15.3 - 13.2
23/06:00pm SSW 3 6 - - - - - - Recent precip. 15.4 - 12.4

Other formats

Comma delimited format used in spreadsheet applications
http://www.bom.gov.au/fwo/IDQ60701/IDQ60701.99218.axf

JavaScript Object Notation format (JSON) in row-major order
http://www.bom.gov.au/fwo/IDQ60701/IDQ60701.99218.json

Data quality

Most of these data are generated automatically and are frequently updated. Quality checks on data are not normally performed. It is possible for incorrect values to appear. Refer to information at About Latest Weather Observations and please check the disclaimer before using these data.